Terminal Aerodrome Forecast
Issued by NWS

Home | Current Version | Previous Version | Text Only | Print | Product List | Glossary On
Versions: 1 2 3 4 5 6 7 8 9 10 11 12 13 14
000
FTUS43 KDTX 262320
TAFYIP
TAF
KYIP 262320Z 2700/2724 22007KT P6SM SCT060 BKN200
     FM270200 VRB04KT P6SM SCT060 BKN200
     FM271000 19004KT 3SM BR SCT025 BKN200
     FM271300 20010KT P6SM BKN040 PROB30 2720/2724 6SM TSRA
      OVC035CB=

USA.gov is the U.S. government's official web portal to all federal, state and local government web resources and services.